Here is the Quick Look data you requested

The Data originates at the National Weather Service, and is made available here by the UAlbany Department of Atmospheric and Environmental Sciences

Surface Observations

KAKQ 251054Z AUTO 00000KT M1/4SM FG VV002 19/19 A2988 RMK AO2 SLP117 T01890189=
KAKQ 251113Z AUTO 00000KT 1/4SM FG VV002 19/19 A2989 RMK AO2 T01890189=
KAVC 251055Z AUTO 00000KT 7SM CLR 17/17 A2995 RMK AO2 T01730171=
KBCB 251055Z AUTO 00000KT 7SM CLR 15/15 A3000 RMK AO2 LTG DSNT SW T01510151=
KCHO 251053Z 00000KT 7SM FEW002 19/17 A2988 RMK AO2 SLP112 T01890167=
KCJR 251055Z AUTO 00000KT 5SM BR CLR 17/16 A2989 RMK AO2 T01700162=
KCPK 251055Z AUTO 00000KT 3/4SM BR OVC003 20/19 A2986 RMK AO2 T01950190=
KDAA 251055Z AUTO 00000KT 2SM BR CLR 17/17 A2985 RMK AO2 SLP111 T01740167 $=
KDAN 251053Z AUTO 00000KT 4SM BR BKN002 17/17 A2990 RMK AO2 SLP114 T01720167=
KDCA 251052Z 20004KT 10SM OVC250 21/19 A2986 RMK AO2 SLP110 T02110194=
KEZF 251055Z AUTO 00000KT 10SM CLR 18/18 A2986 RMK AO2 T01800180=
KFAF 251055Z AUTO 01004KT 2 1/2SM BR OVC003 21/20 A2984 RMK AO2 VIS 2 1/2V3
 SLP108 T02060197 $=
KFKN 251055Z AUTO 00000KT 1 1/4SM BR OVC003 20/20 A2989 RMK AO2 T01990195=
KFVX 251055Z AUTO 00000KT 7SM CLR 16/16 A2988 RMK AO2 LTG DSNT W T01610161=
KHEF 251056Z 00000KT 10SM CLR 17/ A2988 RMK AO2 SLP120 T0172=
KHLX 251055Z AUTO 22004KT 10SM CLR 16/13 A2999 RMK AO2 LTG DSNT SW T01580127=
KHSP 251055Z AUTO 28003KT 10SM CLR 16/14 A3002 RMK AO2 LTG DSNT SW T01570137=
KIAD 251052Z 00000KT 10SM BKN250 18/17 A2987 RMK AO2 SLP111 T01830172=
KJYO 251055Z AUTO 00000KT 10SM CLR 18/18 A2988 RMK AO2=
KLFI 251055Z AUTO 05003KT 4SM BR OVC011 22/21 A2985 RMK AO2 VIS 2 1/2 RWY26 CIG
 010 RWY26 SLP114 T02190207 $=
KLKU 251115Z AUTO 00000KT 7SM BR CLR 18/18 A2988 RMK AO2 T01850184=
KLNP 251055Z AUTO 16005KT 10SM SCT080 15/12 A3000 RMK AO2 LTG DSNT S AND SW=
KLYH 251054Z 00000KT M1/4SM R04/0500V0700FT FG VV001 17/17 A2991 RMK AO2 SLP120
 T01720172=
KMFV 251055Z AUTO 00000KT M1/4SM FG OVC001 A2986 RMK AO2 P0001=
KMKJ 251055Z AUTO 27006KT 10SM SCT002 15/15 A3003 RMK AO2 LTG DSNT W T01450145=
KMTV 251055Z AUTO 00000KT 10SM CLR 15/14 A2995 RMK AO2 T01490136=
KNGU 251059Z 06004KT 3SM BR OVC004 22/21 A2987 RMK AO2 CIG 003V008 SLP116
 T02170211
KNTU 251056Z 05004KT 5SM BR OVC004 21/19 A2985 RMK AO2 SLP111 T02060194=
KNYG 251056Z AUTO 29004KT 5SM BR CLR 19/18 A2987 RMK AO2 SLP117 T01940178 $=
KOFP 251054Z AUTO 00000KT 6SM BR FEW003 17/17 A2989 RMK AO2 SLP120 T01720172=
KOKV 251055Z AUTO 27003KT 10SM CLR 18/17 A2988 RMK AO2=
KOMH 251055Z AUTO 00000KT 7SM CLR 16/16 A2990 RMK AO2=
KORF 251051Z 07003KT 8SM OVC006 22/20 A2986 RMK AO2 SLP111 T02170200=
KPHF 251054Z 36003KT 1/4SM FG VV002 21/21 A2987 RMK AO2 SLP113 T02060206 RVRNO=
KPSK 251055Z AUTO 00000KT 5SM BR CLR 14/14 A2997 RMK AO2 LTG DSNT W T01400137=
KPTB 251055Z AUTO 23004KT 5SM BR CLR 17/16 A2989 RMK AO2 T01660159=
KRIC 251054Z 00000KT 10SM BKN300 19/18 A2987 RMK AO2 SLP118 T01940183 $=
KROA 251054Z 34004KT 10SM FEW200 18/16 A2995 RMK AO2 SLP130 T01830156=
KSFQ 251055Z AUTO 00000KT 4SM BR SCT002 OVC007 21/21 A2988 RMK AO2 T02060206=
KSHD 251055Z AUTO 00000KT 10SM CLR 15/15 A2995 RMK AO2 T01480147=
KVJI 251055Z AUTO 00000KT 10SM -RA SCT075 OVC100 17/17 A2998 RMK AO2 P0005
 T01650165=
KWAL 251054Z AUTO 00000KT 1/4SM FG VV002 19/19 A2987 RMK AO2 SLP112 T01890189=